| time (UTC) | temp C | wind direction | speed KPH | gust KPH | rain 1hr cm | rain 24hr cm | rain mn cm | humidity % | barometer mb |
| 20260906231515 | -17 | 215 | 3.2 | 9.7 | 0.00 | 1.12 | 0.71 | 1004.6 | |
| 20260906230015 | -17 | 300 | 4.8 | 16.1 | 0.00 | 1.12 | 0.71 | 1004.7 | |
| 20260906224517 | -17 | 317 | 6.4 | 17.7 | 0.00 | 1.12 | 0.71 | 1005.0 | |
| 20260906223016 | -17 | 336 | 9.7 | 16.1 | 0.00 | 1.12 | 0.71 | 1005.0 | |
| 20260906221519 | -17 | 338 | 9.7 | 19.3 | 0.00 | 1.12 | 0.71 | 1004.9 | |
| 20260906220013 | -17 | 304 | 9.7 | 17.7 | 0.00 | 1.12 | 0.71 | 1005.0 | |
| 20260906214512 | -17 | 252 | 4.8 | 14.5 | 0.00 | 1.12 | 0.71 | 1004.9 | |
| 20260906213011 | -17 | 275 | 8.0 | 12.9 | 0.00 | 1.12 | 0.71 | 1004.8 | |
| 20260906211511 | -17 | 21 | 0.0 | 11.3 | 0.00 | 1.12 | 0.71 | 1004.7 | |
| 20260906210010 | -17 | 223 | 4.8 | 11.3 | 0.00 | 1.12 | 0.71 | 1004.7 | |
| 20260906204506 | -17 | 321 | 3.2 | 11.3 | 0.00 | 1.12 | 0.71 | 1004.7 | |
| 20260906203104 | -17 | 228 | 3.2 | 11.3 | 0.00 | 1.12 | 0.71 | 1004.6 | |
| 20260906201556 | -17 | 297 | 6.4 | 11.3 | 0.00 | 1.12 | 0.71 | 1005.0 | |
| 20260906200052 | -17 | 316 | 8.0 | 17.7 | 0.00 | 1.12 | 0.71 | 1004.9 | |
| 20260906194547 | -17 | 302 | 4.8 | 12.9 | 0.00 | 1.12 | 0.71 | 1004.8 | |
| 20260906193046 | -17 | 313 | 4.8 | 16.1 | 0.00 | 1.12 | 0.71 | 1004.6 | |
| 20260906191539 | -17 | 121 | 8.0 | 14.5 | 0.00 | 1.12 | 0.71 | 1004.7 | |
| 20260906190034 | -17 | 126 | 6.4 | 20.9 | 0.00 | 1.12 | 0.71 | 1004.6 | |
| 20260906184530 | -17 | 109 | 9.7 | 24.1 | 0.00 | 1.12 | 0.71 | 1004.4 | |
| 20260906183025 | -17 | 83 | 12.9 | 25.7 | 0.00 | 1.12 | 0.71 | 1004.6 | |
| 20260906181532 | -17 | 312 | 1.6 | 11.3 | 0.00 | 1.12 | 0.71 | 1005.2 | |
| 20260906180026 | -17 | 261 | 4.8 | 9.7 | 0.03 | 1.12 | 0.71 | 1005.6 | |
| 20260906174512 | -17 | 53 | 6.4 | 19.3 | 0.03 | 1.12 | 0.71 | 1005.8 | |
| 20260906173007 | -17 | 67 | 14.5 | 30.6 | 0.03 | 1.12 | 0.71 | 1005.4 | |
| 20260906171503 | -17 | 298 | 20.9 | 38.6 | 0.00 | 1.09 | 0.69 | 1007.4 | |
| 20260906170117 | -17 | 312 | 1.6 | 8.0 | 0.05 | 1.09 | 0.69 | 1007.0 | |
| 20260906164557 | -17 | 269 | 0.0 | 11.3 | 0.10 | 1.09 | 0.69 | 1007.0 | |
| 20260906163056 | -17 | 246 | 6.4 | 11.3 | 0.10 | 1.09 | 0.69 | 1006.7 | |
| 20260906161546 | -17 | 267 | 1.6 | 8.0 | 0.10 | 1.09 | 0.69 | 1006.4 | |
| 20260906160050 | -17 | 301 | 3.2 | 16.1 | 0.05 | 1.04 | 0.64 | 1006.9 | |
| 20260906154536 | -17 | 311 | 6.4 | 20.9 | 0.20 | 0.99 | 0.58 | 1006.9 | |
| 20260906153037 | -17 | 278 | 9.7 | 20.9 | 0.56 | 0.99 | 0.58 | 1007.0 | |
| 20260906151527 | -17 | 338 | 12.9 | 32.2 | 0.58 | 0.99 | 0.58 | 1007.3 | |
| 20260906150026 | -17 | 350 | 17.7 | 30.6 | 0.58 | 0.99 | 0.58 | 1007.9 | |
| 20260906144521 | -17 | 323 | 14.5 | 29.0 | 0.38 | 0.81 | 0.38 | 1008.8 | |
| 20260906143014 | -17 | 292 | 12.9 | 24.1 | 0.00 | 0.43 | 0.00 | 1008.0 | |
| 20260906141516 | -17 | 63 | 16.1 | 32.2 | 0.00 | 0.43 | 0.00 | 1007.0 | |
| 20260906140005 | -17 | 88 | 24.1 | 45.1 | 0.00 | 0.43 | 0.00 | 1006.6 | |
| 20260906134502 | -17 | 72 | 20.9 | 35.4 | 0.00 | 0.58 | 0.00 | 1006.6 | |
| 20260906133117 | -17 | 96 | 17.7 | 35.4 | 0.00 | 0.58 | 0.00 | 1006.7 | |
| 20260906131552 | -17 | 90 | 12.9 | 30.6 | 0.00 | 0.58 | 0.00 | 1006.5 | |
| 20260906130104 | -17 | 54 | 17.7 | 35.4 | 0.00 | 0.58 | 0.00 | 1006.5 | |
| 20260906124544 | -17 | 42 | 16.1 | 29.0 | 0.00 | 0.58 | 0.00 | 1006.5 | |
| 20260906123040 | -17 | 54 | 12.9 | 33.8 | 0.00 | 0.58 | 0.00 | 1007.0 | |
| 20260906121537 | -17 | 51 | 20.9 | 37.0 | 0.00 | 0.58 | 0.00 | 1006.8 | |
| 20260906120032 | -17 | 61 | 22.5 | 35.4 | 0.00 | 0.58 | 0.00 | 1006.7 | |
| 20260906114541 | -17 | 80 | 16.1 | 25.7 | 0.00 | 0.58 | 0.00 | 1007.2 | |
| 20260906113024 | -17 | 45 | 14.5 | 32.2 | 0.00 | 0.58 | 0.00 | 1006.8 | |
| 20260906111540 | -17 | 81 | 19.3 | 32.2 | 0.00 | 0.58 | 0.08 | 1006.5 | |
| 20260906110032 | -17 | 54 | 19.3 | 30.6 | 0.00 | 0.58 | 0.08 | 1006.5 | |
| 20260906104527 | -17 | 133 | 8.0 | 20.9 | 0.00 | 0.58 | 0.08 | 1006.9 | |
| 20260906103022 | -17 | 332 | 11.3 | 29.0 | 0.00 | 0.58 | 0.08 | 1006.9 | |
| 20260906101522 | -17 | 28 | 16.1 | 32.2 | 0.00 | 0.58 | 0.08 | 1006.7 | |
| 20260906100021 | -17 | 76 | 17.7 | 35.4 | 0.00 | 0.58 | 0.08 | 1006.7 | |
| 20260906094508 | -17 | 14 | 12.9 | 24.1 | 0.00 | 0.58 | 0.08 | 1006.9 | |
| 20260906093005 | -17 | 63 | 11.3 | 20.9 | 0.00 | 0.58 | 0.08 | 1007.2 | |
| 20260906091601 | -17 | 250 | 17.7 | 37.0 | 0.00 | 0.58 | 0.08 | 1008.5 | |
| 20260906090057 | -17 | 328 | 12.9 | 30.6 | 0.00 | 0.58 | 0.08 | 1008.4 | |
| 20260906084552 | -17 | 22 | 12.9 | 40.2 | 0.00 | 0.58 | 0.08 | 1007.8 | |
| 20260906083051 | -17 | 61 | 17.7 | 33.8 | 0.00 | 0.58 | 0.08 | 1007.2 | |
| 20260906081542 | -17 | 38 | 9.7 | 30.6 | 0.00 | 0.58 | 0.08 | 1008.1 | |
| 20260906080040 | -17 | 334 | 11.3 | 29.0 | 0.00 | 0.58 | 0.08 | 1008.0 | |
| 20260906074535 | -17 | 55 | 20.9 | 35.4 | 0.00 | 0.58 | 0.08 | 1007.7 | |
| 20260906073031 | -17 | 313 | 8.0 | 24.1 | 0.00 | 0.58 | 0.08 | 1008.4 | |
| 20260906071524 | -17 | 329 | 11.3 | 22.5 | 0.00 | 0.58 | 0.08 | 1009.0 | |
| 20260906070019 | -17 | 345 | 12.9 | 25.7 | 0.08 | 0.58 | 0.08 | 1008.8 | |
| 20260906064515 | -17 | 11 | 20.9 | 38.6 | 0.08 | 0.58 | 0.08 | 1009.1 | |
| 20260906063014 | -17 | 5 | 11.3 | 22.5 | 0.08 | 0.58 | 0.08 | 1009.6 | |
| 20260906061507 | -17 | 56 | 6.4 | 19.3 | 0.08 | 0.58 | 0.08 | 1009.5 | |
| 20260906060002 | -17 | 30 | 9.7 | 30.6 | 0.13 | 0.51 | 0.51 | 1009.3 | |
| 20260906054605 | -17 | 48 | 12.9 | 25.7 | 0.13 | 0.51 | 0.51 | 1009.0 | |
| 20260906053059 | -17 | 59 | 11.3 | 20.9 | 0.13 | 0.51 | 0.51 | 1009.2 | |
| 20260906051607 | -17 | 34 | 4.8 | 25.7 | 0.13 | 0.51 | 0.51 | 1009.2 | |
| 20260906050046 | -17 | 309 | 6.4 | 17.7 | 0.00 | 0.38 | 0.38 | 1010.3 | |
| 20260906044549 | -17 | 67 | 14.5 | 35.4 | 0.08 | 0.38 | 0.38 | 1008.6 | |
| 20260906043035 | -17 | 84 | 14.5 | 24.1 | 0.20 | 0.38 | 0.38 | 1008.2 | |
| 20260906041531 | -17 | 59 | 12.9 | 29.0 | 0.20 | 0.38 | 0.38 | 1008.6 | |
| 20260906040046 | -17 | 202 | 0.0 | 30.6 | 0.20 | 0.38 | 0.38 | 1008.7 | |
| 20260906034520 | -17 | 302 | 9.7 | 17.7 | 0.13 | 0.30 | 0.30 | 1010.3 | |
| 20260906033034 | -17 | 271 | 3.2 | 20.9 | 0.00 | 0.18 | 0.18 | 1009.5 | |
| 20260906031515 | -17 | 48 | 16.1 | 29.0 | 0.00 | 0.18 | 0.18 | 1008.1 | |
| 20260906030014 | -17 | 57 | 11.3 | 24.1 | 0.00 | 0.18 | 0.18 | 1007.8 | |
| 20260906024514 | -17 | 92 | 8.0 | 17.7 | 0.00 | 0.18 | 0.18 | 1007.5 | |
| 20260906023014 | -17 | 309 | 3.2 | 11.3 | 0.00 | 0.18 | 0.18 | 1007.4 | |
| 20260906021514 | -17 | 278 | 4.8 | 8.0 | 0.00 | 0.18 | 0.18 | 1007.5 | |
| 20260906020012 | -17 | 336 | 1.6 | 6.4 | 0.00 | 0.18 | 0.18 | 1007.5 | |
| 20260906014513 | -17 | 51 | 0.0 | 9.7 | 0.00 | 0.18 | 0.18 | 1007.7 | |
| 20260906013012 | -17 | 67 | 6.4 | 12.9 | 0.00 | 0.18 | 0.18 | 1007.3 | |
| 20260906011515 | -17 | 63 | 9.7 | 16.1 | 0.00 | 0.18 | 0.18 | 1007.5 | |
| 20260906010014 | -17 | 86 | 9.7 | 16.1 | 0.00 | 0.18 | 0.18 | 1007.6 | |
| 20260906004505 | -17 | 72 | 6.4 | 12.9 | 0.00 | 0.18 | 0.18 | 1007.7 | |
| 20260906003001 | -17 | 54 | 1.6 | 9.7 | 0.00 | 0.18 | 0.18 | 1007.8 | |
| 20260906001607 | -17 | 90 | 6.4 | 20.9 | 0.00 | 0.18 | 0.18 | 1007.7 | |
| 20260906000056 | -17 | 313 | 11.3 | 24.1 | 0.00 | 0.18 | 0.18 | 1007.8 | |
| 20260905234555 | -17 | 325 | 12.9 | 24.1 | 0.00 | 0.18 | 0.18 | 1008.0 | |
| 20260905233101 | -17 | 309 | 9.7 | 19.3 | 0.00 | 0.18 | 0.18 | 1007.8 |